createdAt,value
2019-01-25T00:00:06.420Z,101479.42
2019-01-25T00:02:33.472Z,101473.50
2019-01-25T00:05:00.552Z,101478.52
2019-01-25T00:07:27.636Z,101472.20
2019-01-25T00:09:58.596Z,101483.42
2019-01-25T00:12:23.822Z,101480.84
2019-01-25T00:14:50.897Z,101468.47
2019-01-25T00:17:17.976Z,101477.36
2019-01-25T00:19:45.193Z,101472.08
2019-01-25T00:22:12.284Z,101471.30
2019-01-25T00:24:41.365Z,101475.17
2019-01-25T00:27:08.468Z,101474.78
2019-01-25T00:29:35.540Z,101484.71
2019-01-25T00:32:02.727Z,101482.91
2019-01-25T00:34:29.915Z,101490.25
2019-01-25T00:36:56.953Z,101492.70
2019-01-25T00:39:24.028Z,101498.77
2019-01-25T00:41:51.119Z,101498.89
2019-01-25T00:44:18.185Z,101501.08
2019-01-25T00:46:45.253Z,101503.80
2019-01-25T00:49:12.456Z,101501.21
2019-01-25T00:51:39.525Z,101503.14
2019-01-25T00:54:06.596Z,101491.41
2019-01-25T00:56:33.735Z,101485.09
2019-01-25T00:59:00.795Z,101487.03
2019-01-25T01:01:27.951Z,101476.45
2019-01-25T01:03:55.081Z,101482.52
2019-01-25T01:06:40.354Z,101482.00
2019-01-25T01:09:09.109Z,101477.75
2019-01-25T01:11:36.159Z,101480.58
2019-01-25T01:14:03.543Z,101479.92
2019-01-25T01:16:30.628Z,101476.45
2019-01-25T01:18:57.702Z,101482.89
2019-01-25T01:21:24.879Z,101487.27
2019-01-25T01:23:52.081Z,101487.79
2019-01-25T01:26:19.129Z,101483.41
2019-01-25T01:28:46.212Z,101482.50
2019-01-25T01:31:13.317Z,101487.66
2019-01-25T01:33:40.589Z,101487.79
2019-01-25T01:36:07.651Z,101488.95
2019-01-25T01:38:34.840Z,101490.63
2019-01-25T01:41:01.979Z,101489.08
2019-01-25T01:43:29.046Z,101495.53
2019-01-25T01:45:56.108Z,101495.66
2019-01-25T01:48:23.200Z,101500.55
2019-01-25T01:50:50.262Z,101510.73
2019-01-25T01:53:17.319Z,101512.55
2019-01-25T01:55:44.435Z,101510.48
2019-01-25T01:58:11.490Z,101514.86
2019-01-25T02:00:38.578Z,101519.50
2019-01-25T02:03:06.805Z,101522.73
2019-01-25T02:05:33.858Z,101531.37
2019-01-25T02:08:00.916Z,101526.73
2019-01-25T02:10:29.678Z,101528.02
2019-01-25T02:12:57.228Z,101520.54
2019-01-25T02:15:24.897Z,101526.73
2019-01-25T02:17:52.853Z,101526.98
2019-01-25T02:20:24.971Z,101523.38
2019-01-25T02:22:52.043Z,101529.05
2019-01-25T02:25:19.092Z,101525.06
2019-01-25T02:27:46.409Z,101521.84
2019-01-25T02:30:18.115Z,101516.16
2019-01-25T02:32:45.188Z,101514.48
2019-01-25T02:35:12.290Z,101515.13
2019-01-25T02:37:39.464Z,101511.39
2019-01-25T02:40:07.792Z,101518.73
2019-01-25T02:42:34.898Z,101517.83
2019-01-25T02:45:02.006Z,101512.29
2019-01-25T02:47:29.053Z,101518.60
2019-01-25T02:49:56.126Z,101513.57
2019-01-25T02:52:23.216Z,101509.83
2019-01-25T02:54:50.302Z,101510.47
2019-01-25T02:57:17.373Z,101505.05
2019-01-25T02:59:44.516Z,101498.60
2019-01-25T03:02:11.654Z,101498.73
2019-01-25T03:04:38.712Z,101490.09
2019-01-25T03:07:05.801Z,101493.57
2019-01-25T03:09:52.416Z,101498.73
2019-01-25T03:12:19.511Z,101489.44
2019-01-25T03:14:46.624Z,101489.19
2019-01-25T03:17:13.734Z,101491.38
2019-01-25T03:19:40.892Z,101490.86
2019-01-25T03:22:07.964Z,101492.14
2019-01-25T03:24:35.049Z,101490.59
2019-01-25T03:27:02.153Z,101487.75
2019-01-25T03:29:29.219Z,101494.08
2019-01-25T03:31:56.289Z,101489.70
2019-01-25T03:34:23.440Z,101486.85
2019-01-25T03:36:50.497Z,101488.66
2019-01-25T03:39:17.556Z,101487.75
2019-01-25T03:41:44.648Z,101481.81
2019-01-25T03:44:13.787Z,101486.20
2019-01-25T03:46:40.838Z,101490.19
2019-01-25T03:49:07.935Z,101492.91
2019-01-25T03:51:36.795Z,101498.06
2019-01-25T03:54:04.213Z,101503.88
2019-01-25T03:56:31.295Z,101502.84
2019-01-25T03:58:58.357Z,101504.00
2019-01-25T04:01:25.407Z,101500.78
2019-01-25T04:03:52.538Z,101499.36
2019-01-25T04:06:19.598Z,101499.62
2019-01-25T04:08:46.702Z,101504.27
2019-01-25T04:11:13.788Z,101509.16
2019-01-25T04:13:40.889Z,101515.09
2019-01-25T04:16:11.945Z,101509.81
2019-01-25T04:18:39.027Z,101509.55
2019-01-25T04:21:21.155Z,101507.23
2019-01-25T04:23:48.229Z,101509.67
2019-01-25T04:26:15.307Z,101497.80
2019-01-25T04:28:42.486Z,101494.05
2019-01-25T04:31:09.571Z,101494.83
2019-01-25T04:33:36.687Z,101496.63
2019-01-25T04:36:04.183Z,101491.09
2019-01-25T04:38:31.277Z,101493.67
2019-01-25T04:40:58.450Z,101495.09
2019-01-25T04:43:25.819Z,101490.05
2019-01-25T04:45:53.019Z,101483.73
2019-01-25T04:49:17.369Z,101487.48
2019-01-25T04:51:44.451Z,101496.00
2019-01-25T04:54:11.567Z,101485.42
2019-01-25T04:56:38.868Z,101489.80
2019-01-25T04:59:06.008Z,101488.13
2019-01-25T05:01:33.115Z,101491.73
2019-01-25T05:04:00.164Z,101495.22
2019-01-25T05:06:27.225Z,101490.05
2019-01-25T05:08:54.445Z,101495.34
2019-01-25T05:11:21.513Z,101495.34
2019-01-25T05:13:48.559Z,101497.66
2019-01-25T05:16:15.746Z,101505.02
2019-01-25T05:18:43.434Z,101515.33
2019-01-25T05:21:25.216Z,101515.33
2019-01-25T05:23:52.396Z,101522.30
2019-01-25T05:26:19.418Z,101522.56
2019-01-25T05:28:46.490Z,101524.63
2019-01-25T05:31:14.492Z,101527.72
2019-01-25T05:33:49.724Z,101525.14
2019-01-25T05:36:16.850Z,101527.20
2019-01-25T05:38:46.945Z,101527.84
2019-01-25T05:41:14.006Z,101525.00
2019-01-25T05:43:42.182Z,101529.90
2019-01-25T05:46:09.332Z,101531.58
2019-01-25T05:48:36.390Z,101539.20
2019-01-25T05:51:05.276Z,101535.71
2019-01-25T05:53:32.355Z,101546.94
2019-01-25T05:55:59.502Z,101538.80
2019-01-25T05:58:26.652Z,101544.61
2019-01-25T06:00:53.704Z,101539.70
2019-01-25T06:03:20.805Z,101533.77
2019-01-25T06:05:47.891Z,101522.94
2019-01-25T06:08:29.341Z,101531.56
2019-01-25T06:10:57.716Z,101530.66
2019-01-25T06:13:24.863Z,101535.95
2019-01-25T06:15:51.928Z,101533.38
2019-01-25T06:18:19.034Z,101539.56
2019-01-25T06:20:50.741Z,101537.75
2019-01-25T06:23:17.772Z,101536.98
2019-01-25T06:25:50.337Z,101538.27
2019-01-25T06:28:17.412Z,101540.34
2019-01-25T06:30:45.888Z,101543.57
2019-01-25T06:33:12.974Z,101539.70
2019-01-25T06:35:41.863Z,101535.17
2019-01-25T06:38:08.932Z,101543.56
2019-01-25T06:40:36.036Z,101537.62
2019-01-25T06:43:03.316Z,101535.94
2019-01-25T06:45:30.437Z,101542.52
2019-01-25T06:47:57.537Z,101543.30
2019-01-25T06:50:24.712Z,101540.59
2019-01-25T06:52:51.746Z,101543.69
2019-01-25T06:55:18.942Z,101546.77
2019-01-25T06:57:55.166Z,101532.97
2019-01-25T07:00:24.524Z,101534.65
2019-01-25T07:02:51.590Z,101535.67
2019-01-25T07:05:18.635Z,101525.48
2019-01-25T07:07:46.195Z,101528.22
2019-01-25T07:10:15.888Z,101520.98
2019-01-25T07:12:42.912Z,101530.41
2019-01-25T07:15:10.341Z,101534.28
2019-01-25T07:17:37.411Z,101539.45
2019-01-25T07:20:06.871Z,101533.12
2019-01-25T07:22:33.935Z,101530.53
2019-01-25T07:25:01.090Z,101532.73
2019-01-25T07:27:28.206Z,101527.30
2019-01-25T07:29:55.296Z,101541.63
2019-01-25T07:32:22.473Z,101548.08
2019-01-25T07:34:49.606Z,101544.20
2019-01-25T07:37:29.321Z,101554.66
2019-01-25T07:39:56.634Z,101550.91
2019-01-25T07:42:23.820Z,101550.25
2019-01-25T07:44:50.866Z,101551.80
2019-01-25T07:47:17.934Z,101554.63
2019-01-25T07:49:45.020Z,101561.98
2019-01-25T07:52:13.909Z,101568.56
2019-01-25T07:54:40.966Z,101581.84
2019-01-25T07:57:09.060Z,101575.66
2019-01-25T07:59:36.093Z,101582.50
2019-01-25T08:02:03.137Z,101578.61
2019-01-25T08:04:30.210Z,101581.69
2019-01-25T08:06:57.238Z,101577.80
2019-01-25T08:09:24.339Z,101569.00
2019-01-25T08:11:51.469Z,101561.63
2019-01-25T08:14:18.495Z,101557.73
2019-01-25T08:16:45.550Z,101555.00
2019-01-25T08:19:12.778Z,101558.61
2019-01-25T08:21:39.937Z,101567.50
2019-01-25T08:24:06.982Z,101562.97
2019-01-25T08:26:34.078Z,101562.04
2019-01-25T08:29:01.113Z,101569.64
2019-01-25T08:31:28.174Z,101565.89
2019-01-25T08:33:55.299Z,101565.11
2019-01-25T08:36:22.466Z,101555.92
2019-01-25T08:38:51.349Z,101551.23
2019-01-25T08:41:18.426Z,101547.95
2019-01-25T08:43:45.585Z,101558.30
2019-01-25T08:46:12.578Z,101558.80
2019-01-25T08:48:39.702Z,101557.24
2019-01-25T08:51:08.204Z,101561.09
2019-01-25T08:53:35.303Z,101564.30
2019-01-25T08:56:02.369Z,101567.91
2019-01-25T08:58:29.433Z,101561.69
2019-01-25T09:00:56.498Z,101551.97
2019-01-25T09:03:23.583Z,101559.66
2019-01-25T09:05:50.676Z,101562.28
2019-01-25T09:08:17.726Z,101570.39
2019-01-25T09:10:44.810Z,101575.30
2019-01-25T09:13:11.932Z,101574.91
2019-01-25T09:15:38.956Z,101572.16
2019-01-25T09:18:06.938Z,101570.44
2019-01-25T09:20:35.468Z,101580.62
2019-01-25T09:23:02.507Z,101581.25
2019-01-25T09:25:29.520Z,101580.98
2019-01-25T09:27:56.612Z,101581.72
2019-01-25T09:30:23.654Z,101580.66
2019-01-25T09:32:50.678Z,101584.00
2019-01-25T09:35:18.008Z,101591.52
2019-01-25T09:37:45.292Z,101582.42
2019-01-25T09:40:15.538Z,101570.46
2019-01-25T09:43:28.965Z,101560.69
2019-01-25T09:45:56.127Z,101569.63
2019-01-25T09:48:23.178Z,101571.59
2019-01-25T09:50:52.903Z,101571.31
2019-01-25T09:53:19.358Z,101584.30
2019-01-25T09:55:46.406Z,101582.02
2019-01-25T09:58:15.328Z,101576.77
2019-01-25T10:00:49.386Z,101571.78
2019-01-25T10:03:16.417Z,101567.90
2019-01-25T10:05:43.668Z,101565.88
2019-01-25T10:08:10.692Z,101567.30
2019-01-25T10:10:37.834Z,101567.30
2019-01-25T10:13:04.917Z,101556.77
2019-01-25T10:15:32.171Z,101564.33
2019-01-25T10:17:59.218Z,101566.23
2019-01-25T10:20:26.373Z,101559.48
2019-01-25T10:22:53.475Z,101564.60
2019-01-25T10:25:20.542Z,101567.36
2019-01-25T10:27:47.735Z,101568.26
2019-01-25T10:30:17.575Z,101554.01
2019-01-25T10:32:44.640Z,101550.69
2019-01-25T10:35:11.786Z,101545.63
2019-01-25T10:37:39.067Z,101545.07
2019-01-25T10:40:09.229Z,101537.19
2019-01-25T10:42:36.328Z,101518.28
2019-01-25T10:45:05.433Z,101514.67
2019-01-25T10:47:32.505Z,101511.64
2019-01-25T10:49:59.601Z,101514.39
2019-01-25T10:52:26.633Z,101515.24
2019-01-25T10:54:53.736Z,101505.55
2019-01-25T10:57:20.782Z,101503.98
2019-01-25T10:59:47.853Z,101502.11
2019-01-25T11:02:14.883Z,101507.52
2019-01-25T11:04:41.994Z,101513.48
2019-01-25T11:07:10.081Z,101508.19
2019-01-25T11:09:38.299Z,101507.00
2019-01-25T11:12:05.372Z,101497.14
2019-01-25T11:14:33.547Z,101489.52
2019-01-25T11:17:00.609Z,101483.55
2019-01-25T11:19:27.658Z,101488.16
2019-01-25T11:21:54.722Z,101486.53
2019-01-25T11:24:21.777Z,101485.39
2019-01-25T11:26:48.813Z,101479.14
2019-01-25T11:29:15.912Z,101468.13
2019-01-25T11:31:42.961Z,101436.58
2019-01-25T11:34:10.093Z,101441.30
2019-01-25T11:36:37.170Z,101447.23
2019-01-25T11:39:08.157Z,101438.99
2019-01-25T11:41:35.223Z,101439.29
2019-01-25T11:44:02.409Z,101432.09
2019-01-25T11:46:29.517Z,101416.75
2019-01-25T11:48:56.636Z,101420.98
2019-01-25T11:51:23.708Z,101428.97
2019-01-25T11:53:50.798Z,101431.66
2019-01-25T11:56:17.839Z,101444.07
2019-01-25T11:58:44.920Z,101450.72
2019-01-25T12:01:12.003Z,101454.23
2019-01-25T12:03:39.153Z,101470.69
2019-01-25T12:06:06.191Z,101475.56
2019-01-25T12:08:33.292Z,101471.88
2019-01-25T12:11:00.386Z,101468.86
2019-01-25T12:13:27.433Z,101464.69
2019-01-25T12:15:54.493Z,101468.60
2019-01-25T12:18:21.624Z,101465.69
2019-01-25T12:20:48.732Z,101458.52
2019-01-25T12:23:15.811Z,101455.53
2019-01-25T12:25:42.862Z,101459.28
2019-01-25T12:28:09.921Z,101452.19
2019-01-25T12:30:38.456Z,101453.15
2019-01-25T12:33:06.628Z,101450.37
2019-01-25T12:35:38.972Z,101459.34
2019-01-25T12:38:06.080Z,101462.20
2019-01-25T12:40:33.581Z,101452.14
2019-01-25T12:43:00.664Z,101455.03
2019-01-25T12:45:27.963Z,101439.77
2019-01-25T12:47:55.208Z,101429.70
2019-01-25T12:50:25.110Z,101430.47
2019-01-25T12:52:52.381Z,101436.27
2019-01-25T12:55:21.226Z,101432.77
2019-01-25T12:57:48.401Z,101425.90
2019-01-25T13:00:17.131Z,101432.70
2019-01-25T13:02:44.312Z,101430.50
2019-01-25T13:05:15.214Z,101428.99
2019-01-25T13:07:42.271Z,101429.69
2019-01-25T13:10:17.461Z,101426.11
2019-01-25T13:12:44.670Z,101428.89
2019-01-25T13:15:26.868Z,101420.52
2019-01-25T13:17:53.946Z,101421.73
2019-01-25T13:20:25.561Z,101414.88
2019-01-25T13:22:52.756Z,101414.19
2019-01-25T13:25:19.987Z,101415.48
2019-01-25T13:27:47.132Z,101403.12
2019-01-25T13:30:19.775Z,101403.44
2019-01-25T13:32:47.152Z,101397.75
2019-01-25T13:35:14.631Z,101392.97
2019-01-25T13:37:41.842Z,101387.08
2019-01-25T13:40:11.750Z,101390.38
2019-01-25T13:42:38.842Z,101383.70
2019-01-25T13:45:07.072Z,101386.88
2019-01-25T13:47:34.229Z,101381.20
2019-01-25T13:50:01.323Z,101378.30
2019-01-25T13:52:28.400Z,101371.31
2019-01-25T13:54:55.578Z,101364.71
2019-01-25T13:57:22.851Z,101358.34
2019-01-25T13:59:49.919Z,101352.06
2019-01-25T14:02:16.991Z,101351.96
2019-01-25T14:04:45.763Z,101352.26
2019-01-25T14:07:12.918Z,101351.06
2019-01-25T14:09:39.972Z,101346.48
2019-01-25T14:12:08.641Z,101339.29
2019-01-25T14:14:36.948Z,101337.59
2019-01-25T14:17:04.121Z,101328.22
2019-01-25T14:19:31.320Z,101310.66
2019-01-25T14:21:58.403Z,101313.84
2019-01-25T14:24:25.476Z,101312.34
2019-01-25T14:26:52.572Z,101303.56
2019-01-25T14:29:19.617Z,101305.56
2019-01-25T14:31:46.704Z,101305.66
2019-01-25T14:34:13.833Z,101294.39
2019-01-25T14:36:40.892Z,101297.28
2019-01-25T14:39:08.143Z,101301.97
2019-01-25T14:41:35.244Z,101299.08
2019-01-25T14:44:02.338Z,101300.67
2019-01-25T14:46:29.412Z,101297.68
2019-01-25T14:48:56.516Z,101297.87
2019-01-25T14:51:23.623Z,101291.80
2019-01-25T14:53:51.155Z,101278.92
2019-01-25T14:56:18.370Z,101289.99
2019-01-25T14:58:45.506Z,101296.48
2019-01-25T15:01:12.658Z,101307.55
2019-01-25T15:03:39.894Z,101311.65
2019-01-25T15:06:06.948Z,101318.42
2019-01-25T15:08:34.087Z,101317.43
2019-01-25T15:11:01.176Z,101302.16
2019-01-25T15:13:28.251Z,101307.45
2019-01-25T15:15:55.325Z,101312.23
2019-01-25T15:18:22.440Z,101304.75
2019-01-25T15:20:49.498Z,101299.36
2019-01-25T15:23:16.553Z,101298.47
2019-01-25T15:25:43.791Z,101286.09
2019-01-25T15:28:10.909Z,101284.09
2019-01-25T15:30:38.274Z,101288.58
2019-01-25T15:33:05.528Z,101286.77
2019-01-25T15:35:34.410Z,101289.27
2019-01-25T15:38:01.646Z,101299.72
2019-01-25T15:40:29.165Z,101291.23
2019-01-25T15:42:56.260Z,101283.55
2019-01-25T15:45:23.322Z,101271.09
2019-01-25T15:47:50.791Z,101264.11
2019-01-25T15:50:20.217Z,101273.19
2019-01-25T15:52:47.344Z,101272.05
2019-01-25T15:55:15.784Z,101279.52
2019-01-25T15:57:42.917Z,101281.30
2019-01-25T16:00:13.638Z,101269.44
2019-01-25T16:02:40.899Z,101260.47
2019-01-25T16:05:09.965Z,101258.28
2019-01-25T16:07:37.176Z,101256.00
2019-01-25T16:10:06.120Z,101254.59
2019-01-25T16:12:33.304Z,101247.12
2019-01-25T16:15:00.375Z,101245.53
2019-01-25T16:17:27.656Z,101239.34
2019-01-25T16:19:54.732Z,101237.56
2019-01-25T16:22:21.922Z,101233.72
2019-01-25T16:24:48.993Z,101219.55
2019-01-25T16:27:16.046Z,101218.42
2019-01-25T16:29:43.114Z,101209.05
2019-01-25T16:32:10.397Z,101201.81
2019-01-25T16:34:37.468Z,101211.98
2019-01-25T16:37:04.537Z,101209.69
2019-01-25T16:39:31.631Z,101206.46
2019-01-25T16:41:58.700Z,101198.02
2019-01-25T16:44:25.980Z,101187.26
2019-01-25T16:46:53.014Z,101189.36
2019-01-25T16:49:20.156Z,101189.85
2019-01-25T16:51:47.290Z,101188.76
2019-01-25T16:54:14.383Z,101182.17
2019-01-25T16:56:41.438Z,101180.68
2019-01-25T16:59:08.495Z,101163.83
2019-01-25T17:01:35.702Z,101164.53
2019-01-25T17:04:02.892Z,101163.53
2019-01-25T17:06:29.972Z,101163.23
2019-01-25T17:08:57.089Z,101157.55
2019-01-25T17:11:24.201Z,101159.63
2019-01-25T17:13:51.248Z,101151.06
2019-01-25T17:16:18.639Z,101155.64
2019-01-25T17:18:45.762Z,101151.26
2019-01-25T17:21:12.833Z,101153.65
2019-01-25T17:23:40.026Z,101149.95
2019-01-25T17:26:07.226Z,101159.12
2019-01-25T17:28:34.843Z,101161.81
2019-01-25T17:31:01.947Z,101157.72
2019-01-25T17:33:29.049Z,101136.66
2019-01-25T17:35:59.179Z,101153.83
2019-01-25T17:38:26.348Z,101153.62
2019-01-25T17:40:53.550Z,101151.23
2019-01-25T17:43:20.579Z,101145.55
2019-01-25T17:45:47.695Z,101144.14
2019-01-25T17:48:14.795Z,101145.84
2019-01-25T17:50:41.852Z,101137.66
2019-01-25T17:53:08.934Z,101127.28
2019-01-25T17:55:35.968Z,101131.68
2019-01-25T17:58:08.070Z,101124.67
2019-01-25T18:00:48.675Z,101127.17
2019-01-25T18:03:15.771Z,101125.19
2019-01-25T18:05:43.014Z,101120.48
2019-01-25T18:08:10.069Z,101125.68
2019-01-25T18:10:37.194Z,101118.48
2019-01-25T18:13:04.233Z,101134.25
2019-01-25T18:15:31.278Z,101120.66
2019-01-25T18:17:58.361Z,101121.77
2019-01-25T18:20:25.441Z,101123.36
2019-01-25T18:22:54.494Z,101123.16
2019-01-25T18:25:25.717Z,101122.55
2019-01-25T18:27:56.866Z,101112.55
2019-01-25T18:30:28.315Z,101117.95
2019-01-25T18:32:55.369Z,101108.59
2019-01-25T18:35:22.410Z,101099.52
2019-01-25T18:37:49.482Z,101101.70
2019-01-25T18:40:16.704Z,101094.32
2019-01-25T18:42:43.865Z,101090.34
2019-01-25T18:45:10.965Z,101089.34
2019-01-25T18:47:39.231Z,101090.31
2019-01-25T18:50:08.757Z,101087.03
2019-01-25T18:52:35.914Z,101084.34
2019-01-25T18:55:05.317Z,101074.25
2019-01-25T18:57:32.377Z,101080.43
2019-01-25T18:59:59.912Z,101085.43
2019-01-25T19:02:27.056Z,101063.78
2019-01-25T19:04:54.201Z,101078.92
2019-01-25T19:07:21.353Z,101081.20
2019-01-25T19:09:48.431Z,101072.52
2019-01-25T19:12:15.560Z,101080.90
2019-01-25T19:14:43.909Z,101073.82
2019-01-25T19:17:11.092Z,101073.33
2019-01-25T19:19:39.238Z,101071.23
2019-01-25T19:22:06.357Z,101070.42
2019-01-25T19:24:33.687Z,101076.60
2019-01-25T19:27:00.722Z,101068.70
2019-01-25T19:29:27.916Z,101069.50
2019-01-25T19:31:54.974Z,101056.62
2019-01-25T19:34:22.026Z,101053.75
2019-01-25T19:36:49.105Z,101050.37
2019-01-25T19:39:16.207Z,101042.12
2019-01-25T19:41:43.333Z,101050.86
2019-01-25T19:44:10.425Z,101054.17
2019-01-25T19:46:37.792Z,101051.77
2019-01-25T19:49:05.151Z,101051.85
2019-01-25T19:51:32.226Z,101050.52
2019-01-25T19:53:59.638Z,101052.71
2019-01-25T19:56:26.813Z,101048.41
2019-01-25T19:58:53.850Z,101045.38
2019-01-25T20:01:20.958Z,101048.38
2019-01-25T20:03:47.999Z,101042.23
2019-01-25T20:06:15.234Z,101044.70
2019-01-25T20:08:43.298Z,101046.31
2019-01-25T20:11:10.530Z,101045.87
2019-01-25T20:13:37.592Z,101041.89
2019-01-25T20:16:04.860Z,101036.91
2019-01-25T20:18:31.953Z,101037.77
2019-01-25T20:20:59.255Z,101038.57
2019-01-25T20:23:26.350Z,101029.17
2019-01-25T20:25:53.471Z,101043.32
2019-01-25T20:28:20.645Z,101038.62
2019-01-25T20:30:49.732Z,101033.69
2019-01-25T20:33:16.844Z,101035.53
2019-01-25T20:35:44.003Z,101047.70
2019-01-25T20:38:11.076Z,101042.16
2019-01-25T20:40:38.557Z,101040.19
2019-01-25T20:43:05.938Z,101041.66
2019-01-25T20:45:34.978Z,101040.01
2019-01-25T20:48:02.769Z,101051.91
2019-01-25T20:50:31.230Z,101037.68
2019-01-25T20:52:58.625Z,101031.27
2019-01-25T20:55:26.132Z,101038.00
2019-01-25T20:57:53.996Z,101040.58
2019-01-25T21:00:23.548Z,101040.99
2019-01-25T21:02:50.786Z,101028.33
2019-01-25T21:05:18.008Z,101040.58
2019-01-25T21:07:51.064Z,101045.69
2019-01-25T21:10:19.354Z,101037.19
2019-01-25T21:12:47.831Z,101033.68
2019-01-25T21:15:16.446Z,101042.45
2019-01-25T21:17:43.663Z,101045.23
2019-01-25T21:20:16.992Z,101030.59
2019-01-25T21:22:48.095Z,101045.47
2019-01-25T21:25:15.554Z,101035.70
2019-01-25T21:27:42.845Z,101038.48
2019-01-25T21:30:13.545Z,101040.98
2019-01-25T21:32:40.954Z,101032.88
2019-01-25T21:35:08.786Z,101035.42
2019-01-25T21:37:37.439Z,101041.02
2019-01-25T21:40:08.604Z,101036.14
2019-01-25T21:42:35.537Z,101034.27
2019-01-25T21:45:03.358Z,101031.09
2019-01-25T21:47:30.832Z,101035.47
2019-01-25T21:49:57.989Z,101030.14
2019-01-25T21:52:25.005Z,101033.41
2019-01-25T21:54:52.123Z,101032.60
2019-01-25T21:57:19.244Z,101023.19
2019-01-25T21:59:46.313Z,101022.07
2019-01-25T22:02:13.509Z,101026.05
2019-01-25T22:04:40.562Z,101025.83
2019-01-25T22:07:07.601Z,101011.08
2019-01-25T22:09:34.683Z,101006.80
2019-01-25T22:12:02.142Z,101014.77
2019-01-25T22:14:29.197Z,101018.03
2019-01-25T22:16:56.336Z,101006.86
2019-01-25T22:19:23.484Z,101020.75
2019-01-25T22:21:50.632Z,101024.96
2019-01-25T22:24:17.691Z,101004.63
2019-01-25T22:26:44.761Z,101016.77
2019-01-25T22:29:13.100Z,100996.37
2019-01-25T22:31:40.214Z,101009.28
2019-01-25T22:34:07.303Z,100990.92
2019-01-25T22:36:34.423Z,100982.17
2019-01-25T22:39:01.453Z,100991.36
2019-01-25T22:41:28.539Z,100992.57
2019-01-25T22:43:55.608Z,101003.94
2019-01-25T22:46:22.666Z,101004.34
2019-01-25T22:48:49.776Z,100999.72
2019-01-25T22:51:16.860Z,101004.29
2019-01-25T22:53:43.897Z,101002.84
2019-01-25T22:56:48.696Z,101010.23
2019-01-25T22:59:15.773Z,101011.06
2019-01-25T23:01:43.424Z,101015.54
2019-01-25T23:04:52.166Z,101006.50
2019-01-25T23:07:25.471Z,101017.97
2019-01-25T23:10:01.152Z,101009.51
2019-01-25T23:12:28.248Z,101009.04
2019-01-25T23:14:55.267Z,101007.25
2019-01-25T23:17:22.395Z,101001.91
2019-01-25T23:20:50.645Z,101007.76
2019-01-25T23:23:17.721Z,101011.09
2019-01-25T23:25:44.791Z,101014.58
2019-01-25T23:28:11.872Z,101014.58
2019-01-25T23:30:38.957Z,101021.48
2019-01-25T23:33:06.021Z,101014.11
2019-01-25T23:35:33.310Z,101020.67
2019-01-25T23:38:00.817Z,101023.61
2019-01-25T23:40:27.911Z,101019.14
2019-01-25T23:42:55.041Z,101010.86
2019-01-25T23:45:22.100Z,101010.22
2019-01-25T23:47:49.147Z,101011.36
2019-01-25T23:50:16.333Z,101007.70
2019-01-25T23:52:43.485Z,101008.45
2019-01-25T23:55:10.545Z,101003.09
2019-01-25T23:57:39.004Z,101007.23
